Time;durP1;ratioP1;P1;durP2;ratioP2;P2;SDS_P1;SDS_P2;PMS_P1;PMS_P2;Temp;Humidity;BMP_temperature;BMP_pressure;BME280_temperature;BME280_humidity;BME280_pressure;Samples;Min_cycle;Max_cycle;Signal;HPM_P1;HPM_P2
2023/06/03 00:01:29;;;;;;;0.20;0.20;;;;;;;;;;5136418;27;20069;-48
2023/06/03 00:03:55;;;;;;;0.20;0.20;;;;;;;;;;5135349;27;20088;-48
2023/06/03 00:06:21;;;;;;;0.20;0.20;;;;;;;;;;5136207;27;20288;-48
2023/06/03 00:08:46;;;;;;;0.20;0.20;;;;;;;;;;5135048;27;20419;-47
2023/06/03 00:11:13;;;;;;;0.20;0.20;;;;;;;;;;5124142;27;20052;-49
2023/06/03 00:13:38;;;;;;;0.20;0.20;;;;;;;;;;5135712;27;20142;-50
2023/06/03 00:16:04;;;;;;;0.20;0.20;;;;;;;;;;5135781;27;20047;-49
2023/06/03 00:18:30;;;;;;;0.20;0.20;;;;;;;;;;5135526;27;20047;-50
2023/06/03 00:20:55;;;;;;;0.20;0.20;;;;;;;;;;5135596;27;20471;-50
2023/06/03 00:23:21;;;;;;;0.20;0.20;;;;;;;;;;5130942;27;20047;-47
2023/06/03 00:25:47;;;;;;;0.20;0.20;;;;;;;;;;5113016;27;20060;-49
2023/06/03 00:28:12;;;;;;;0.20;0.20;;;;;;;;;;5114415;27;20044;-46
2023/06/03 00:30:38;;;;;;;0.20;0.20;;;;;;;;;;5126783;27;20460;-48
2023/06/03 00:33:04;;;;;;;0.35;0.35;;;;;;;;;;5139424;27;20043;-47
2023/06/03 00:35:30;;;;;;;0.20;0.20;;;;;;;;;;5139099;27;20047;-47
2023/06/03 00:37:55;;;;;;;0.20;0.20;;;;;;;;;;5138563;27;20395;-49
2023/06/03 00:40:21;;;;;;;0.20;0.20;;;;;;;;;;5138531;27;20043;-49
2023/06/03 00:42:46;;;;;;;0.20;0.20;;;;;;;;;;5139179;27;20042;-48
2023/06/03 00:45:12;;;;;;;0.20;0.20;;;;;;;;;;5139207;27;20309;-50
2023/06/03 00:47:37;;;;;;;0.20;0.20;;;;;;;;;;5139029;27;20295;-51
2023/06/03 00:50:04;;;;;;;0.20;0.20;;;;;;;;;;5138116;27;20050;-49
2023/06/03 00:52:30;;;;;;;0.20;0.20;;;;;;;;;;5139303;27;20047;-49
2023/06/03 00:54:56;;;;;;;0.20;0.20;;;;;;;;;;5139568;27;20486;-48
2023/06/03 00:57:22;;;;;;;0.20;0.20;;;;;;;;;;5138927;27;20077;-46
2023/06/03 00:59:48;;;;;;;0.20;0.20;;;;;;;;;;5138176;27;20042;-49
2023/06/03 01:02:14;;;;;;;0.10;0.10;;;;;;;;;;5138557;27;20061;-50
2023/06/03 01:04:42;;;;;;;0.10;0.10;;;;;;;;;;5139381;27;20038;-50
2023/06/03 01:07:27;;;;;;;0.10;0.10;;;;;;;;;;5119657;27;20042;-48
2023/06/03 01:10:13;;;;;;;0.20;0.20;;;;;;;;;;5122858;27;20544;-48
2023/06/03 01:12:46;;;;;;;0.20;0.20;;;;;;;;;;5123021;27;20600;-49
2023/06/03 01:15:15;;;;;;;0.20;0.20;;;;;;;;;;5139038;27;20047;-46
2023/06/03 01:17:45;;;;;;;0.20;0.20;;;;;;;;;;5124737;27;20043;-50
2023/06/03 01:20:11;;;;;;;0.20;0.20;;;;;;;;;;5127463;27;20443;-47
2023/06/03 01:22:40;;;;;;;0.20;0.20;;;;;;;;;;5140659;27;20046;-51
2023/06/03 01:25:08;;;;;;;0.20;0.20;;;;;;;;;;5141624;27;20042;-47
2023/06/03 01:27:34;;;;;;;0.20;0.20;;;;;;;;;;5159127;27;20095;-50
2023/06/03 01:29:59;;;;;;;0.20;0.20;;;;;;;;;;5141136;27;20050;-49
2023/06/03 01:32:28;;;;;;;0.20;0.20;;;;;;;;;;5133317;27;20070;-50
2023/06/03 01:34:54;;;;;;;0.20;0.20;;;;;;;;;;5118024;28;20396;-47
2023/06/03 01:37:20;;;;;;;0.20;0.20;;;;;;;;;;5127572;27;20224;-49
2023/06/03 01:39:46;;;;;;;0.20;0.20;;;;;;;;;;5133692;27;20208;-47
2023/06/03 01:42:11;;;;;;;0.20;0.20;;;;;;;;;;5136496;27;20077;-48
2023/06/03 01:44:37;;;;;;;0.20;0.20;;;;;;;;;;5130378;27;20042;-49
2023/06/03 01:47:04;;;;;;;0.20;0.20;;;;;;;;;;5137041;27;20065;-47
2023/06/03 01:49:31;;;;;;;0.20;0.20;;;;;;;;;;5113172;27;20061;-47
2023/06/03 01:51:58;;;;;;;0.20;0.20;;;;;;;;;;5137154;27;20046;-47
2023/06/03 01:54:25;;;;;;;0.20;0.20;;;;;;;;;;5137950;27;20051;-48
2023/06/03 01:56:52;;;;;;;0.10;0.10;;;;;;;;;;5119696;27;20961;-49
2023/06/03 01:59:17;;;;;;;0.20;0.20;;;;;;;;;;5137680;27;20066;-48
2023/06/03 02:01:43;;;;;;;0.20;0.20;;;;;;;;;;5137149;27;20041;-47
2023/06/03 02:04:09;;;;;;;0.20;0.20;;;;;;;;;;5137280;27;20053;-47
2023/06/03 02:06:36;;;;;;;0.20;0.20;;;;;;;;;;5137926;27;20125;-51
2023/06/03 02:09:02;;;;;;;0.20;0.20;;;;;;;;;;5127747;27;20525;-48
2023/06/03 02:11:27;;;;;;;0.20;0.20;;;;;;;;;;5136501;27;20042;-47
2023/06/03 02:13:53;;;;;;;0.15;0.15;;;;;;;;;;5132648;27;20498;-49
2023/06/03 02:16:18;;;;;;;0.20;0.20;;;;;;;;;;5135878;27;20054;-49
2023/06/03 02:18:45;;;;;;;0.20;0.20;;;;;;;;;;5137893;27;20069;-48
2023/06/03 02:21:10;;;;;;;0.20;0.20;;;;;;;;;;5137348;27;20551;-46
2023/06/03 02:23:36;;;;;;;0.20;0.20;;;;;;;;;;5130854;27;20034;-48
2023/06/03 02:26:02;;;;;;;0.20;0.20;;;;;;;;;;5137025;27;20046;-47
2023/06/03 02:28:29;;;;;;;0.20;0.20;;;;;;;;;;5137290;27;20471;-47
2023/06/03 02:30:55;;;;;;;0.10;0.10;;;;;;;;;;5136896;27;20293;-47
2023/06/03 02:33:20;;;;;;;0.20;0.20;;;;;;;;;;5117385;27;20147;-43
2023/06/03 02:35:46;;;;;;;0.20;0.20;;;;;;;;;;5137216;27;20436;-45
2023/06/03 02:38:11;;;;;;;0.20;0.20;;;;;;;;;;5136937;27;20049;-43
2023/06/03 02:40:37;;;;;;;0.20;0.20;;;;;;;;;;5130337;27;20051;-43
2023/06/03 02:43:02;;;;;;;0.20;0.20;;;;;;;;;;5137230;27;20050;-44
2023/06/03 02:45:28;;;;;;;0.20;0.20;;;;;;;;;;5137214;27;20054;-43
2023/06/03 02:47:53;;;;;;;0.20;0.20;;;;;;;;;;5133179;27;20454;-43
2023/06/03 02:50:20;;;;;;;0.20;0.20;;;;;;;;;;5132787;27;20035;-44
2023/06/03 02:52:45;;;;;;;0.20;0.20;;;;;;;;;;5136319;27;20046;-44
2023/06/03 02:55:11;;;;;;;0.20;0.20;;;;;;;;;;5137014;27;20042;-45
2023/06/03 02:57:36;;;;;;;0.10;0.10;;;;;;;;;;5116680;27;20051;-43
2023/06/03 03:00:05;;;;;;;0.20;0.20;;;;;;;;;;5121435;27;20050;-44
2023/06/03 03:02:30;;;;;;;0.10;0.10;;;;;;;;;;5136820;27;20453;-44
2023/06/03 03:04:56;;;;;;;0.20;0.20;;;;;;;;;;5136815;27;20575;-43
2023/06/03 03:07:26;;;;;;;0.20;0.20;;;;;;;;;;5136363;27;20500;-43
2023/06/03 03:09:52;;;;;;;0.20;0.20;;;;;;;;;;5119933;27;20055;-43
2023/06/03 03:12:17;;;;;;;0.20;0.20;;;;;;;;;;5117604;27;20088;-44
2023/06/03 03:14:43;;;;;;;0.20;0.20;;;;;;;;;;5136513;27;20076;-44
2023/06/03 03:17:09;;;;;;;0.20;0.20;;;;;;;;;;5136771;27;20519;-43
2023/06/03 03:19:35;;;;;;;0.20;0.20;;;;;;;;;;5136503;27;20051;-43
2023/06/03 03:22:01;;;;;;;0.10;0.10;;;;;;;;;;5136065;27;20047;-44
2023/06/03 03:24:27;;;;;;;0.30;0.30;;;;;;;;;;5136203;27;20043;-43
2023/06/03 03:26:53;;;;;;;0.20;0.20;;;;;;;;;;5136122;27;20074;-43
2023/06/03 03:29:18;;;;;;;0.20;0.20;;;;;;;;;;5136284;27;20084;-44
2023/06/03 03:31:44;;;;;;;0.20;0.20;;;;;;;;;;5136111;27;20472;-43
2023/06/03 03:34:10;;;;;;;0.20;0.20;;;;;;;;;;5135979;27;20050;-43
2023/06/03 03:36:36;;;;;;;0.20;0.20;;;;;;;;;;5135281;27;20051;-43
2023/06/03 03:39:03;;;;;;;0.20;0.20;;;;;;;;;;5117367;27;20043;-43
2023/06/03 03:41:29;;;;;;;0.10;0.10;;;;;;;;;;5135831;27;20116;-43
2023/06/03 03:43:54;;;;;;;0.20;0.20;;;;;;;;;;5117030;27;20038;-45
2023/06/03 03:46:20;;;;;;;0.20;0.20;;;;;;;;;;5115605;27;20138;-43
2023/06/03 03:48:46;;;;;;;0.20;0.20;;;;;;;;;;5115459;28;20146;-43
2023/06/03 03:51:12;;;;;;;0.20;0.20;;;;;;;;;;5131885;27;20092;-43
2023/06/03 03:53:42;;;;;;;0.20;0.20;;;;;;;;;;5135566;27;20055;-43
2023/06/03 03:56:08;;;;;;;0.15;0.15;;;;;;;;;;5130873;27;20312;-43
2023/06/03 03:58:39;;;;;;;0.20;0.20;;;;;;;;;;5135821;27;20128;-45
2023/06/03 04:03:44;;;;;;;0.20;0.20;;;;;;;;;;5165672;27;20654;-44
2023/06/03 04:06:11;;;;;;;0.20;0.20;;;;;;;;;;5126119;27;20102;-42
2023/06/03 04:08:38;;;;;;;0.20;0.20;;;;;;;;;;5114139;27;20472;-43
2023/06/03 04:11:05;;;;;;;0.10;0.10;;;;;;;;;;5154313;27;20042;-43
2023/06/03 04:13:33;;;;;;;0.20;0.20;;;;;;;;;;5146815;27;20500;-44
2023/06/03 04:16:00;;;;;;;0.20;0.20;;;;;;;;;;5114933;27;20099;-43
2023/06/03 04:18:26;;;;;;;0.10;0.10;;;;;;;;;;5153617;27;20042;-43
2023/06/03 04:20:56;;;;;;;0.13;0.13;;;;;;;;;;5153914;27;20053;-43
2023/06/03 04:23:22;;;;;;;0.20;0.20;;;;;;;;;;5136488;27;20073;-42
2023/06/03 04:25:48;;;;;;;0.20;0.20;;;;;;;;;;5125635;27;20051;-43
2023/06/03 04:28:14;;;;;;;0.20;0.20;;;;;;;;;;5112640;28;20070;-42
2023/06/03 04:30:39;;;;;;;0.20;0.20;;;;;;;;;;5112589;27;20078;-42
2023/06/03 04:33:05;;;;;;;0.22;0.20;;;;;;;;;;5113305;28;20055;-41
2023/06/03 04:35:31;;;;;;;0.20;0.20;;;;;;;;;;5112785;28;20045;-43
2023/06/03 04:37:57;;;;;;;0.20;0.20;;;;;;;;;;5128354;27;20039;-43
2023/06/03 04:40:22;;;;;;;0.20;0.20;;;;;;;;;;5113936;27;20108;-42
2023/06/03 04:42:49;;;;;;;0.20;0.20;;;;;;;;;;5108153;27;20494;-45
2023/06/03 04:45:15;;;;;;;0.20;0.20;;;;;;;;;;5109464;27;20047;-46
2023/06/03 04:47:41;;;;;;;0.20;0.20;;;;;;;;;;5121234;27;20414;-44
2023/06/03 04:50:08;;;;;;;0.20;0.20;;;;;;;;;;5131715;27;20108;-44
2023/06/03 04:52:35;;;;;;;0.20;0.20;;;;;;;;;;5113959;27;20101;-45
2023/06/03 04:55:01;;;;;;;0.10;0.10;;;;;;;;;;5132932;27;20047;-45
2023/06/03 04:57:26;;;;;;;0.20;0.20;;;;;;;;;;5130556;27;20186;-46
2023/06/03 04:59:52;;;;;;;0.20;0.20;;;;;;;;;;5131581;27;20076;-44
2023/06/03 05:02:20;;;;;;;0.20;0.20;;;;;;;;;;5123550;27;20047;-44
2023/06/03 05:04:46;;;;;;;0.20;0.20;;;;;;;;;;5112688;27;20051;-44
2023/06/03 05:07:13;;;;;;;0.20;0.20;;;;;;;;;;5112812;27;20135;-44
2023/06/03 05:09:39;;;;;;;0.20;0.20;;;;;;;;;;5113676;27;20051;-44
2023/06/03 05:12:05;;;;;;;0.20;0.20;;;;;;;;;;5132183;27;20054;-45
2023/06/03 05:14:31;;;;;;;0.20;0.20;;;;;;;;;;5122240;27;20043;-45
2023/06/03 05:16:57;;;;;;;0.20;0.20;;;;;;;;;;5118259;27;20061;-47
2023/06/03 05:19:22;;;;;;;0.20;0.20;;;;;;;;;;5118145;28;20598;-45
2023/06/03 05:21:48;;;;;;;0.20;0.20;;;;;;;;;;5100932;28;20073;-45
2023/06/03 05:24:13;;;;;;;0.20;0.20;;;;;;;;;;5102499;28;20051;-47
2023/06/03 05:26:39;;;;;;;0.20;0.20;;;;;;;;;;5118596;28;20047;-45
2023/06/03 05:29:05;;;;;;;0.20;0.20;;;;;;;;;;5107605;28;20262;-45
2023/06/03 05:31:30;;;;;;;0.20;0.20;;;;;;;;;;5115817;28;20421;-45
2023/06/03 05:33:56;;;;;;;0.20;0.20;;;;;;;;;;5118669;28;20047;-45
2023/06/03 05:36:22;;;;;;;0.20;0.20;;;;;;;;;;5100607;28;20078;-46
2023/06/03 05:38:47;;;;;;;0.20;0.20;;;;;;;;;;5117640;28;20485;-45
2023/06/03 05:41:13;;;;;;;0.20;0.20;;;;;;;;;;5104774;27;20399;-45
2023/06/03 05:43:39;;;;;;;0.20;0.20;;;;;;;;;;5111496;28;20058;-45
2023/06/03 05:46:04;;;;;;;0.17;0.17;;;;;;;;;;5103515;28;20050;-44
2023/06/03 05:48:30;;;;;;;0.20;0.20;;;;;;;;;;5118341;28;20047;-46
2023/06/03 05:50:55;;;;;;;0.20;0.20;;;;;;;;;;5118094;28;20410;-45
2023/06/03 05:53:23;;;;;;;0.20;0.20;;;;;;;;;;5117723;28;20047;-45
2023/06/03 05:55:48;;;;;;;0.10;0.10;;;;;;;;;;5100235;28;20520;-46
2023/06/03 05:58:14;;;;;;;0.10;0.10;;;;;;;;;;5118201;28;20129;-44
2023/06/03 06:00:40;;;;;;;0.20;0.20;;;;;;;;;;5098247;28;20441;-45
2023/06/03 06:03:06;;;;;;;0.20;0.20;;;;;;;;;;5097048;28;20047;-44
2023/06/03 06:05:33;;;;;;;0.20;0.20;;;;;;;;;;5097631;28;20059;-45
2023/06/03 06:07:58;;;;;;;0.20;0.20;;;;;;;;;;5097612;28;20043;-45
2023/06/03 06:10:24;;;;;;;0.20;0.20;;;;;;;;;;5097111;28;20171;-45
2023/06/03 06:12:49;;;;;;;0.20;0.20;;;;;;;;;;5078687;28;20093;-45
2023/06/03 06:15:15;;;;;;;0.20;0.20;;;;;;;;;;5096965;28;20044;-45
2023/06/03 06:17:42;;;;;;;0.20;0.20;;;;;;;;;;5111097;27;20181;-45
2023/06/03 06:20:09;;;;;;;0.20;0.20;;;;;;;;;;5117570;28;20047;-46
2023/06/03 06:22:34;;;;;;;0.10;0.10;;;;;;;;;;5117477;27;20117;-45
2023/06/03 06:25:02;;;;;;;0.20;0.20;;;;;;;;;;5116518;27;20055;-44
2023/06/03 06:27:28;;;;;;;0.20;0.20;;;;;;;;;;5099121;28;20434;-45
2023/06/03 06:29:54;;;;;;;0.20;0.20;;;;;;;;;;5117667;28;20548;-45
2023/06/03 06:32:24;;;;;;;0.20;0.20;;;;;;;;;;5117642;28;20181;-45
2023/06/03 06:34:49;;;;;;;0.20;0.20;;;;;;;;;;5099156;28;20039;-44
2023/06/03 06:37:17;;;;;;;0.20;0.20;;;;;;;;;;5117272;28;20039;-46
2023/06/03 06:39:47;;;;;;;0.10;0.10;;;;;;;;;;5096395;28;20439;-45
2023/06/03 06:42:30;;;;;;;0.20;0.20;;;;;;;;;;5116502;28;20491;-46
2023/06/03 06:44:56;;;;;;;0.20;0.20;;;;;;;;;;5098986;28;20070;-44
2023/06/03 06:47:23;;;;;;;0.20;0.20;;;;;;;;;;5117628;28;20092;-45
2023/06/03 06:49:49;;;;;;;0.20;0.20;;;;;;;;;;5094924;28;20047;-46
2023/06/03 06:52:15;;;;;;;0.20;0.20;;;;;;;;;;5099063;28;20045;-46
2023/06/03 06:54:41;;;;;;;0.20;0.20;;;;;;;;;;5098785;28;20059;-47
2023/06/03 06:57:06;;;;;;;0.30;0.30;;;;;;;;;;5117285;28;20295;-45
2023/06/03 06:59:32;;;;;;;0.20;0.20;;;;;;;;;;5116376;28;20043;-45
2023/06/03 07:01:58;;;;;;;0.20;0.20;;;;;;;;;;5098446;28;20047;-45
2023/06/03 07:04:23;;;;;;;0.10;0.10;;;;;;;;;;5098887;28;20117;-45
2023/06/03 07:06:49;;;;;;;0.20;0.20;;;;;;;;;;5116556;28;20054;-45
2023/06/03 07:09:15;;;;;;;0.20;0.20;;;;;;;;;;5099100;28;20632;-45
2023/06/03 07:11:43;;;;;;;0.20;0.20;;;;;;;;;;5116963;28;20153;-45
2023/06/03 07:14:09;;;;;;;0.20;0.20;;;;;;;;;;5098253;28;20047;-45
2023/06/03 07:16:35;;;;;;;0.20;0.20;;;;;;;;;;5116467;27;20094;-44
2023/06/03 07:19:01;;;;;;;0.20;0.20;;;;;;;;;;5117197;28;20046;-45
2023/06/03 07:21:26;;;;;;;0.20;0.20;;;;;;;;;;5099361;28;20039;-46
2023/06/03 07:23:52;;;;;;;0.20;0.20;;;;;;;;;;5096416;28;20127;-46
2023/06/03 07:26:18;;;;;;;0.20;0.20;;;;;;;;;;5096400;28;21062;-46
2023/06/03 07:28:46;;;;;;;0.20;0.20;;;;;;;;;;5078205;28;20051;-47
2023/06/03 07:31:11;;;;;;;0.20;0.20;;;;;;;;;;5077785;28;20486;-45
2023/06/03 07:33:47;;;;;;;0.20;0.20;;;;;;;;;;5096283;28;20047;-45
2023/06/03 07:36:12;;;;;;;0.20;0.20;;;;;;;;;;5095870;28;20089;-47
2023/06/03 07:38:50;;;;;;;0.20;0.20;;;;;;;;;;5095466;28;20043;-45
2023/06/03 07:41:19;;;;;;;0.20;0.20;;;;;;;;;;5111922;28;20070;-46
2023/06/03 07:43:44;;;;;;;0.15;0.15;;;;;;;;;;5112759;27;20081;-45
2023/06/03 07:46:10;;;;;;;0.20;0.20;;;;;;;;;;5096157;28;20128;-44
2023/06/03 07:48:36;;;;;;;0.20;0.20;;;;;;;;;;5096318;28;20043;-46
2023/06/03 07:51:02;;;;;;;0.20;0.20;;;;;;;;;;5113492;28;20070;-44
2023/06/03 07:53:30;;;;;;;0.20;0.20;;;;;;;;;;5116342;28;20079;-44
2023/06/03 07:55:58;;;;;;;0.20;0.20;;;;;;;;;;5115911;28;20453;-46
2023/06/03 07:58:24;;;;;;;0.20;0.20;;;;;;;;;;5116093;28;20055;-44
2023/06/03 08:00:52;;;;;;;0.20;0.20;;;;;;;;;;5115465;27;20487;-45
2023/06/03 08:03:18;;;;;;;0.20;0.20;;;;;;;;;;5099837;28;20287;-44
2023/06/03 08:05:46;;;;;;;0.20;0.20;;;;;;;;;;5116458;28;20092;-45
2023/06/03 08:08:12;;;;;;;0.10;0.10;;;;;;;;;;5116353;28;20075;-44
2023/06/03 08:10:38;;;;;;;0.20;0.20;;;;;;;;;;5116310;28;20051;-44
2023/06/03 08:13:04;;;;;;;0.20;0.20;;;;;;;;;;5116565;28;20439;-44
2023/06/03 08:15:35;;;;;;;0.13;0.13;;;;;;;;;;5097699;28;20062;-45
2023/06/03 08:18:03;;;;;;;0.20;0.20;;;;;;;;;;5116412;28;20044;-45
2023/06/03 08:20:28;;;;;;;0.20;0.20;;;;;;;;;;5116148;28;20500;-46
2023/06/03 08:22:56;;;;;;;0.20;0.20;;;;;;;;;;5115932;27;20180;-45
2023/06/03 08:25:22;;;;;;;0.10;0.10;;;;;;;;;;5097928;28;20070;-44
2023/06/03 08:27:48;;;;;;;0.10;0.10;;;;;;;;;;5097043;28;20047;-44
2023/06/03 08:30:14;;;;;;;0.20;0.20;;;;;;;;;;5096841;28;20058;-46
2023/06/03 08:32:40;;;;;;;0.15;0.15;;;;;;;;;;5097901;28;20039;-44
2023/06/03 08:35:06;;;;;;;0.20;0.20;;;;;;;;;;5097554;28;20141;-45
2023/06/03 08:37:32;;;;;;;0.20;0.20;;;;;;;;;;5096198;28;20122;-44
2023/06/03 08:39:58;;;;;;;0.20;0.20;;;;;;;;;;5096808;28;20524;-44
2023/06/03 08:42:28;;;;;;;0.20;0.20;;;;;;;;;;5115644;28;20043;-45
2023/06/03 08:45:02;;;;;;;0.20;0.20;;;;;;;;;;5115783;28;20389;-45
2023/06/03 08:47:34;;;;;;;0.20;0.20;;;;;;;;;;5115650;28;20078;-46
2023/06/03 08:50:02;;;;;;;0.25;0.25;;;;;;;;;;5098378;28;20051;-46
2023/06/03 08:52:30;;;;;;;0.20;0.20;;;;;;;;;;5099170;28;20475;-44
2023/06/03 08:54:59;;;;;;;0.20;0.20;;;;;;;;;;5081350;28;20040;-45
2023/06/03 08:57:26;;;;;;;0.20;0.20;;;;;;;;;;5099098;28;20078;-44
2023/06/03 08:59:53;;;;;;;0.20;0.20;;;;;;;;;;5098916;28;20492;-46
2023/06/03 09:02:19;;;;;;;0.20;0.20;;;;;;;;;;5118316;27;20526;-44
2023/06/03 09:04:47;;;;;;;0.10;0.10;;;;;;;;;;5103257;28;20107;-44
2023/06/03 09:07:14;;;;;;;0.10;0.10;;;;;;;;;;5101013;28;20047;-45
2023/06/03 09:09:40;;;;;;;0.20;0.20;;;;;;;;;;5118735;28;20589;-44
2023/06/03 09:12:06;;;;;;;0.20;0.20;;;;;;;;;;5118758;28;20481;-44
2023/06/03 09:14:32;;;;;;;0.20;0.20;;;;;;;;;;5119610;28;20447;-45
2023/06/03 09:16:58;;;;;;;0.20;0.20;;;;;;;;;;5119595;28;20355;-44
2023/06/03 09:19:25;;;;;;;0.20;0.20;;;;;;;;;;5119368;28;20074;-45
2023/06/03 09:21:53;;;;;;;0.20;0.20;;;;;;;;;;5116939;28;20043;-44
2023/06/03 09:24:20;;;;;;;0.20;0.20;;;;;;;;;;5101228;28;20482;-45
2023/06/03 09:26:46;;;;;;;0.20;0.20;;;;;;;;;;5119657;28;20047;-44
2023/06/03 09:29:13;;;;;;;0.20;0.20;;;;;;;;;;5119128;28;20051;-45
2023/06/03 09:31:40;;;;;;;0.10;0.10;;;;;;;;;;5119298;28;20617;-45
2023/06/03 09:34:06;;;;;;;0.20;0.20;;;;;;;;;;5100636;28;20070;-44
2023/06/03 09:36:42;;;;;;;0.20;0.20;;;;;;;;;;5121555;27;20406;-44
2023/06/03 09:39:10;;;;;;;0.20;0.20;;;;;;;;;;5121107;27;20057;-45
2023/06/03 09:41:36;;;;;;;0.20;0.20;;;;;;;;;;5129181;27;20042;-45
2023/06/03 09:44:03;;;;;;;0.20;0.20;;;;;;;;;;5120502;27;20491;-45
2023/06/03 09:46:29;;;;;;;0.20;0.20;;;;;;;;;;5101493;28;20099;-45
2023/06/03 09:49:06;;;;;;;0.20;0.20;;;;;;;;;;5100357;28;20078;-44
2023/06/03 09:51:39;;;;;;;0.20;0.20;;;;;;;;;;5118494;28;20047;-44
2023/06/03 09:54:08;;;;;;;0.20;0.20;;;;;;;;;;5099840;28;20432;-45
2023/06/03 09:56:34;;;;;;;0.20;0.20;;;;;;;;;;5100684;28;20051;-45
2023/06/03 09:59:16;;;;;;;0.20;0.20;;;;;;;;;;5118659;28;20484;-44
2023/06/03 10:01:42;;;;;;;0.20;0.20;;;;;;;;;;5117621;28;20062;-44
2023/06/03 10:04:08;;;;;;;0.20;0.20;;;;;;;;;;5117794;28;20537;-44
2023/06/03 10:06:38;;;;;;;0.20;0.20;;;;;;;;;;5117978;28;20070;-44
2023/06/03 10:09:16;;;;;;;0.20;0.20;;;;;;;;;;5118473;28;20078;-45
2023/06/03 10:11:41;;;;;;;;;;;;;;;;;;5118180;28;20077;-44
2023/06/03 10:14:07;;;;;;;0.20;0.20;;;;;;;;;;5117732;28;19951;-44
2023/06/03 10:16:32;;;;;;;0.20;0.20;;;;;;;;;;5117884;28;20506;-45
2023/06/03 10:18:58;;;;;;;0.20;0.20;;;;;;;;;;5118037;28;20200;-44
2023/06/03 10:21:24;;;;;;;0.20;0.20;;;;;;;;;;5117771;27;20188;-44
2023/06/03 10:23:52;;;;;;;0.20;0.20;;;;;;;;;;5099523;28;20188;-44
2023/06/03 10:26:18;;;;;;;0.20;0.20;;;;;;;;;;5117782;28;20071;-47
2023/06/03 10:28:46;;;;;;;0.20;0.20;;;;;;;;;;5118418;28;20146;-45
2023/06/03 10:31:12;;;;;;;0.10;0.10;;;;;;;;;;5117709;28;20119;-45
2023/06/03 10:33:39;;;;;;;0.20;0.20;;;;;;;;;;5099439;28;20342;-46
2023/06/03 10:36:06;;;;;;;0.20;0.20;;;;;;;;;;5091450;28;20043;-46
2023/06/03 10:38:32;;;;;;;0.20;0.20;;;;;;;;;;5116268;27;20761;-44
2023/06/03 10:41:00;;;;;;;0.17;0.17;;;;;;;;;;5107800;27;20505;-45
2023/06/03 10:43:26;;;;;;;0.20;0.20;;;;;;;;;;5107088;28;20066;-45
2023/06/03 10:45:53;;;;;;;0.20;0.20;;;;;;;;;;5118029;28;20385;-45
2023/06/03 10:48:21;;;;;;;0.20;0.20;;;;;;;;;;5100019;28;20181;-44
2023/06/03 10:53:41;;;;;;;0.20;0.20;;;;;;;;;;5176047;27;20149;-42
2023/06/03 10:56:16;;;;;;;0.20;0.20;;;;;;;;;;5139047;27;20402;-42
2023/06/03 10:58:43;;;;;;;0.20;0.20;;;;;;;;;;5136745;27;20046;-42
2023/06/03 11:01:08;;;;;;;0.20;0.20;;;;;;;;;;5154727;27;20082;-42
2023/06/03 11:03:54;;;;;;;0.20;0.20;;;;;;;;;;5154839;27;20065;-43
2023/06/03 11:09:03;;;;;;;0.10;0.10;;;;;;;;;;5161408;27;20470;-42
2023/06/03 11:11:48;;;;;;;0.17;0.17;;;;;;;;;;5154690;27;20697;-46
2023/06/03 11:17:09;;;;;;;0.20;0.20;;;;;;;;;;5176184;27;20193;-43
2023/06/03 11:19:36;;;;;;;0.20;0.20;;;;;;;;;;5154782;27;20546;-42
2023/06/03 11:22:04;;;;;;;0.10;0.10;;;;;;;;;;5129167;27;20176;-43
2023/06/03 11:24:47;;;;;;;0.20;0.20;;;;;;;;;;5133587;27;20074;-42
2023/06/03 11:29:51;;;;;;;0.20;0.20;;;;;;;;;;5176097;27;20218;-43
2023/06/03 11:32:21;;;;;;;0.20;0.20;;;;;;;;;;5155102;27;20095;-42
2023/06/03 11:35:10;;;;;;;0.20;0.20;;;;;;;;;;5129534;27;20051;-43
2023/06/03 11:40:19;;;;;;;0.10;0.10;;;;;;;;;;5172684;27;20596;-44
2023/06/03 11:42:47;;;;;;;0.20;0.20;;;;;;;;;;5113936;27;20238;-43
2023/06/03 11:47:52;;;;;;;0.20;0.20;;;;;;;;;;5175815;27;20149;-43
2023/06/03 11:50:18;;;;;;;0.20;0.20;;;;;;;;;;5154215;27;20046;-42
2023/06/03 11:52:44;;;;;;;0.20;0.20;;;;;;;;;;5154913;27;20043;-42
2023/06/03 11:55:10;;;;;;;0.20;0.20;;;;;;;;;;5154211;27;20035;-43
2023/06/03 11:57:37;;;;;;;0.15;0.15;;;;;;;;;;5154110;27;20137;-43
2023/06/03 12:00:08;;;;;;;0.20;0.20;;;;;;;;;;5154429;27;20401;-43
2023/06/03 12:02:35;;;;;;;0.20;0.20;;;;;;;;;;5155183;27;20263;-44
2023/06/03 12:05:05;;;;;;;0.20;0.20;;;;;;;;;;5154597;27;20053;-44
2023/06/03 12:07:30;;;;;;;0.10;0.10;;;;;;;;;;5152528;27;20462;-42
2023/06/03 12:09:57;;;;;;;0.10;0.10;;;;;;;;;;5138349;27;20513;-42
2023/06/03 12:12:23;;;;;;;0.20;0.20;;;;;;;;;;5154623;27;20046;-42
2023/06/03 12:14:48;;;;;;;0.10;0.10;;;;;;;;;;5154261;27;20046;-45
2023/06/03 12:17:15;;;;;;;0.20;0.20;;;;;;;;;;5154613;27;20477;-46
2023/06/03 12:19:43;;;;;;;0.20;0.20;;;;;;;;;;5150207;27;20054;-45
2023/06/03 12:22:09;;;;;;;0.20;0.20;;;;;;;;;;5108217;28;20047;-44
2023/06/03 12:24:35;;;;;;;0.20;0.20;;;;;;;;;;5105781;27;20046;-46
2023/06/03 12:27:21;;;;;;;0.20;0.20;;;;;;;;;;5132918;27;20526;-45
2023/06/03 12:29:48;;;;;;;0.20;0.20;;;;;;;;;;5118087;27;20465;-46
2023/06/03 12:32:15;;;;;;;0.20;0.20;;;;;;;;;;5134044;27;20402;-44
2023/06/03 12:34:41;;;;;;;0.20;0.20;;;;;;;;;;5109581;27;20422;-45
2023/06/03 12:37:07;;;;;;;0.20;0.20;;;;;;;;;;5093936;28;20043;-44
2023/06/03 12:39:41;;;;;;;0.20;0.20;;;;;;;;;;5095587;27;20063;-45
2023/06/03 12:42:06;;;;;;;0.15;0.15;;;;;;;;;;5114695;27;20478;-44
2023/06/03 12:44:52;;;;;;;0.20;0.20;;;;;;;;;;5133232;27;20047;-45
2023/06/03 12:47:19;;;;;;;0.10;0.10;;;;;;;;;;5117131;27;20067;-45
2023/06/03 12:50:01;;;;;;;0.20;0.20;;;;;;;;;;5132522;27;20125;-44
2023/06/03 12:52:27;;;;;;;0.20;0.20;;;;;;;;;;5128452;27;20096;-45
2023/06/03 12:54:53;;;;;;;0.20;0.20;;;;;;;;;;5133323;27;20043;-44
2023/06/03 12:57:19;;;;;;;0.10;0.10;;;;;;;;;;5130720;27;20099;-45
2023/06/03 13:00:07;;;;;;;0.20;0.20;;;;;;;;;;5114287;28;20055;-44
2023/06/03 13:02:33;;;;;;;0.10;0.10;;;;;;;;;;5083662;28;20058;-46
2023/06/03 13:04:59;;;;;;;0.20;0.20;;;;;;;;;;5098650;28;20160;-45
2023/06/03 13:07:25;;;;;;;0.20;0.20;;;;;;;;;;5098831;27;20112;-45
2023/06/03 13:09:51;;;;;;;0.20;0.20;;;;;;;;;;5114914;28;20506;-46
2023/06/03 13:12:17;;;;;;;0.20;0.20;;;;;;;;;;5080202;28;20043;-44
2023/06/03 13:14:43;;;;;;;0.17;0.17;;;;;;;;;;5099165;28;20047;-45
2023/06/03 13:17:09;;;;;;;0.20;0.20;;;;;;;;;;5098082;28;20051;-44
2023/06/03 13:19:35;;;;;;;0.20;0.20;;;;;;;;;;5098061;28;20558;-45
2023/06/03 13:22:01;;;;;;;0.20;0.20;;;;;;;;;;5098324;28;20071;-45
2023/06/03 13:24:26;;;;;;;0.20;0.20;;;;;;;;;;5098748;28;20044;-46
2023/06/03 13:26:52;;;;;;;0.10;0.10;;;;;;;;;;5110042;28;20073;-45
2023/06/03 13:29:18;;;;;;;0.20;0.20;;;;;;;;;;5118861;28;20559;-44
2023/06/03 13:31:43;;;;;;;0.20;0.20;;;;;;;;;;5118728;28;20107;-45
2023/06/03 13:34:09;;;;;;;0.20;0.20;;;;;;;;;;5119518;27;20047;-44
2023/06/03 13:36:36;;;;;;;0.20;0.20;;;;;;;;;;5138854;27;20501;-44
2023/06/03 13:39:03;;;;;;;0.20;0.20;;;;;;;;;;5139140;27;20065;-44
2023/06/03 13:41:29;;;;;;;0.20;0.20;;;;;;;;;;5103524;27;20055;-44
2023/06/03 13:43:54;;;;;;;0.20;0.20;;;;;;;;;;5079595;28;20101;-45
2023/06/03 13:46:20;;;;;;;0.20;0.20;;;;;;;;;;5098584;28;20040;-44
2023/06/03 13:48:46;;;;;;;0.20;0.20;;;;;;;;;;5098194;28;20698;-45
2023/06/03 13:51:11;;;;;;;0.20;0.20;;;;;;;;;;5097749;28;20042;-45
2023/06/03 13:53:37;;;;;;;0.20;0.20;;;;;;;;;;5113533;28;20380;-44
2023/06/03 13:56:02;;;;;;;0.20;0.20;;;;;;;;;;5118814;28;20063;-45
2023/06/03 13:58:28;;;;;;;0.20;0.20;;;;;;;;;;5118515;28;20465;-44
2023/06/03 14:00:53;;;;;;;0.20;0.20;;;;;;;;;;5118093;28;20047;-45
2023/06/03 14:03:20;;;;;;;0.20;0.20;;;;;;;;;;5118282;28;20093;-44
2023/06/03 14:05:46;;;;;;;0.20;0.20;;;;;;;;;;5100268;28;20036;-45
2023/06/03 14:08:12;;;;;;;0.20;0.20;;;;;;;;;;5115355;27;20277;-45
2023/06/03 14:10:40;;;;;;;0.10;0.10;;;;;;;;;;5116658;27;20270;-45
2023/06/03 14:13:05;;;;;;;0.20;0.20;;;;;;;;;;5117507;28;20074;-45
2023/06/03 14:15:33;;;;;;;0.20;0.20;;;;;;;;;;5118101;28;20047;-45
2023/06/03 14:18:00;;;;;;;0.20;0.20;;;;;;;;;;5117919;28;20450;-44
2023/06/03 14:20:25;;;;;;;0.20;0.20;;;;;;;;;;5117584;28;20051;-45
2023/06/03 14:22:51;;;;;;;0.20;0.20;;;;;;;;;;5118103;28;20043;-44
2023/06/03 14:25:16;;;;;;;0.20;0.20;;;;;;;;;;5118201;28;20131;-44
2023/06/03 14:27:42;;;;;;;0.10;0.10;;;;;;;;;;5118163;28;20043;-45
2023/06/03 14:30:08;;;;;;;0.10;0.10;;;;;;;;;;5117359;28;20152;-45
2023/06/03 14:32:33;;;;;;;0.20;0.20;;;;;;;;;;5118030;28;20066;-45
2023/06/03 14:35:07;;;;;;;0.20;0.20;;;;;;;;;;5134351;27;20458;-45
2023/06/03 14:37:34;;;;;;;0.10;0.10;;;;;;;;;;5138361;27;20066;-44
2023/06/03 14:39:59;;;;;;;0.20;0.20;;;;;;;;;;5127234;27;20415;-45
2023/06/03 14:42:25;;;;;;;0.20;0.20;;;;;;;;;;5096467;28;20547;-45
2023/06/03 14:44:50;;;;;;;0.20;0.20;;;;;;;;;;5097040;28;20048;-45
2023/06/03 14:47:26;;;;;;;0.20;0.20;;;;;;;;;;5097240;28;20095;-44
2023/06/03 14:49:52;;;;;;;0.20;0.20;;;;;;;;;;5097234;28;20044;-44
2023/06/03 14:52:18;;;;;;;0.20;0.20;;;;;;;;;;5110855;28;20100;-45
2023/06/03 14:54:43;;;;;;;0.20;0.20;;;;;;;;;;5116986;28;20039;-44
2023/06/03 14:57:09;;;;;;;0.20;0.20;;;;;;;;;;5117369;27;20103;-46
2023/06/03 14:59:34;;;;;;;0.20;0.20;;;;;;;;;;5116852;28;20463;-45
2023/06/03 15:02:00;;;;;;;0.20;0.20;;;;;;;;;;5117370;28;20043;-44